createdAt,value
2019-05-02T00:00:10.058Z,8.70
2019-05-02T00:02:39.037Z,8.70
2019-05-02T00:05:09.490Z,8.80
2019-05-02T00:07:38.625Z,8.90
2019-05-02T00:10:12.029Z,8.90
2019-05-02T00:12:40.656Z,8.90
2019-05-02T00:15:09.382Z,8.90
2019-05-02T00:17:38.024Z,9.00
2019-05-02T00:20:08.509Z,9.10
2019-05-02T00:22:37.148Z,9.10
2019-05-02T00:25:11.109Z,9.10
2019-05-02T00:27:37.754Z,9.10
2019-05-02T00:30:08.821Z,9.10
2019-05-02T00:32:37.517Z,9.10
2019-05-02T00:35:06.808Z,9.10
2019-05-02T00:37:35.746Z,9.10
2019-05-02T00:40:06.738Z,9.10
2019-05-02T00:42:35.302Z,9.00
2019-05-02T00:45:04.595Z,8.90
2019-05-02T00:47:34.802Z,8.90
2019-05-02T00:50:06.149Z,9.00
2019-05-02T00:52:36.655Z,8.90
2019-05-02T00:55:05.854Z,8.90
2019-05-02T00:57:34.421Z,8.80
2019-05-02T01:00:03.804Z,8.80
2019-05-02T01:02:35.836Z,8.70
2019-05-02T01:05:05.746Z,8.60
2019-05-02T01:07:34.373Z,8.50
2019-05-02T01:10:03.580Z,8.40
2019-05-02T01:12:32.174Z,8.30
2019-05-02T01:15:03.401Z,8.20
2019-05-02T01:17:32.175Z,8.20
2019-05-02T01:20:00.749Z,8.00
2019-05-02T01:22:29.317Z,7.90
2019-05-02T01:24:57.870Z,8.00
2019-05-02T01:27:27.998Z,8.00
2019-05-02T01:30:05.645Z,8.00
2019-05-02T01:32:35.694Z,8.00
2019-05-02T01:35:07.447Z,8.00
2019-05-02T01:37:54.974Z,7.90
2019-05-02T01:40:23.891Z,7.80
2019-05-02T01:42:52.454Z,7.80
2019-05-02T01:45:21.092Z,7.70
2019-05-02T01:47:49.661Z,7.60
2019-05-02T01:50:18.214Z,7.50
2019-05-02T01:52:46.781Z,7.50
2019-05-02T01:55:17.171Z,7.50
2019-05-02T01:57:46.033Z,7.50
2019-05-02T02:00:14.711Z,7.60
2019-05-02T02:02:43.531Z,7.50
2019-05-02T02:05:12.369Z,7.40
2019-05-02T02:07:40.974Z,7.40
2019-05-02T02:10:09.886Z,7.40
2019-05-02T02:12:42.976Z,7.50
2019-05-02T02:15:08.711Z,7.50
2019-05-02T02:17:37.258Z,7.60
2019-05-02T02:20:15.652Z,7.70
2019-05-02T02:22:45.869Z,7.80
2019-05-02T02:25:26.653Z,7.90
2019-05-02T02:27:59.636Z,7.90
2019-05-02T02:30:26.707Z,7.90
2019-05-02T02:33:00.691Z,7.90
2019-05-02T02:35:26.072Z,7.90
2019-05-02T02:37:55.722Z,7.90
2019-05-02T02:40:32.890Z,7.80
2019-05-02T02:42:54.730Z,7.90
2019-05-02T02:45:39.845Z,7.90
2019-05-02T02:48:08.459Z,8.00
2019-05-02T02:50:43.120Z,7.90
2019-05-02T02:53:07.505Z,7.80
2019-05-02T02:55:36.129Z,7.70
2019-05-02T02:58:06.616Z,7.70
2019-05-02T03:00:41.414Z,7.40
2019-05-02T03:03:06.206Z,7.20
2019-05-02T03:05:34.843Z,7.00
2019-05-02T03:08:05.450Z,7.00
2019-05-02T03:10:39.551Z,7.00
2019-05-02T03:13:14.887Z,7.00
2019-05-02T03:15:43.413Z,7.10
2019-05-02T03:18:11.963Z,7.20
2019-05-02T03:20:42.045Z,7.30
2019-05-02T03:23:14.981Z,7.50
2019-05-02T03:25:50.381Z,7.60
2019-05-02T03:28:17.368Z,7.70
2019-05-02T03:30:41.629Z,7.70
2019-05-02T03:33:11.937Z,7.80
2019-05-02T03:35:44.749Z,8.10
2019-05-02T03:38:10.631Z,8.10
2019-05-02T03:40:41.305Z,7.90
2019-05-02T03:43:09.467Z,7.60
2019-05-02T03:45:39.820Z,7.40
2019-05-02T03:48:08.559Z,7.30
2019-05-02T03:50:37.855Z,7.10
2019-05-02T03:53:06.390Z,6.90
2019-05-02T03:55:35.369Z,6.70
2019-05-02T03:58:13.198Z,6.60
2019-05-02T04:00:34.265Z,6.60
2019-05-02T04:03:03.893Z,6.60
2019-05-02T04:05:33.676Z,6.70
2019-05-02T04:08:05.492Z,6.90
2019-05-02T04:10:46.157Z,7.00
2019-05-02T04:13:15.645Z,7.00
2019-05-02T04:15:45.556Z,6.90
2019-05-02T04:18:15.196Z,6.90
2019-05-02T04:20:49.763Z,7.00
2019-05-02T04:23:21.422Z,7.10
2019-05-02T04:25:50.314Z,7.20
2019-05-02T04:28:19.468Z,7.20
2019-05-02T04:30:51.189Z,7.30
2019-05-02T04:33:18.234Z,7.40
2019-05-02T04:35:46.790Z,7.40
2019-05-02T04:38:21.212Z,7.30
2019-05-02T04:40:48.910Z,7.30
2019-05-02T04:43:18.233Z,7.20
2019-05-02T04:45:55.711Z,7.20
2019-05-02T04:48:18.376Z,7.20
2019-05-02T04:50:48.381Z,7.20
2019-05-02T04:53:18.886Z,7.10
2019-05-02T04:55:52.061Z,7.00
2019-05-02T04:58:23.989Z,6.90
2019-05-02T05:00:53.649Z,6.80
2019-05-02T05:03:21.029Z,6.70
2019-05-02T05:05:48.344Z,6.80
2019-05-02T05:08:26.031Z,6.80
2019-05-02T05:10:47.987Z,6.90
2019-05-02T05:13:21.758Z,7.00
2019-05-02T05:15:51.285Z,7.10
2019-05-02T05:18:17.658Z,7.40
2019-05-02T05:20:52.914Z,7.60
2019-05-02T05:23:21.316Z,8.00
2019-05-02T05:25:50.784Z,8.40
2019-05-02T05:28:20.595Z,8.80
2019-05-02T05:30:49.637Z,9.20
2019-05-02T05:33:19.348Z,9.60
2019-05-02T05:35:52.319Z,9.80
2019-05-02T05:38:18.264Z,10.00
2019-05-02T05:40:47.944Z,10.20
2019-05-02T05:43:20.278Z,10.40
2019-05-02T05:45:53.483Z,10.50
2019-05-02T05:48:18.409Z,10.70
2019-05-02T05:50:47.760Z,10.80
2019-05-02T05:53:20.598Z,11.00
2019-05-02T05:55:47.374Z,11.20
2019-05-02T05:58:18.675Z,11.50
2019-05-02T06:00:53.912Z,11.70
2019-05-02T06:03:17.913Z,11.70
2019-05-02T06:05:47.746Z,11.70
2019-05-02T06:08:18.341Z,11.60
2019-05-02T06:10:46.650Z,11.90
2019-05-02T06:13:15.214Z,12.20
2019-05-02T06:15:45.950Z,12.70
2019-05-02T06:18:13.973Z,12.90
2019-05-02T06:20:42.514Z,12.90
2019-05-02T06:23:11.140Z,13.10
2019-05-02T06:25:42.361Z,13.40
2019-05-02T06:28:09.848Z,13.70
2019-05-02T06:30:38.434Z,13.90
2019-05-02T06:33:07.205Z,14.30
2019-05-02T06:35:35.754Z,14.50
2019-05-02T06:38:04.453Z,14.90
2019-05-02T06:40:33.002Z,15.30
2019-05-02T06:43:04.444Z,15.60
2019-05-02T06:45:32.194Z,16.20
2019-05-02T06:48:01.910Z,16.60
2019-05-02T06:50:33.442Z,17.20
2019-05-02T06:53:04.317Z,17.80
2019-05-02T06:55:36.234Z,18.20
2019-05-02T06:58:02.870Z,18.50
2019-05-02T07:00:39.926Z,18.90
2019-05-02T07:03:04.913Z,19.30
2019-05-02T07:05:31.810Z,19.70
2019-05-02T07:08:00.411Z,20.10
2019-05-02T07:10:37.888Z,20.60
2019-05-02T07:13:10.009Z,21.10
2019-05-02T07:15:43.052Z,21.60
2019-05-02T07:18:16.306Z,22.10
2019-05-02T07:20:44.773Z,22.80
2019-05-02T07:23:16.160Z,23.20
2019-05-02T07:25:43.948Z,24.00
2019-05-02T07:28:13.013Z,24.80
2019-05-02T07:30:41.653Z,25.60
2019-05-02T07:33:10.282Z,26.80
2019-05-02T07:35:38.850Z,27.50
2019-05-02T07:38:07.414Z,28.80
2019-05-02T07:40:35.997Z,29.20
2019-05-02T07:43:04.669Z,30.50
2019-05-02T07:45:33.159Z,30.50
2019-05-02T07:48:01.772Z,31.70
2019-05-02T07:50:30.374Z,32.40
2019-05-02T07:52:59.207Z,32.80
2019-05-02T07:55:30.509Z,33.60
2019-05-02T07:58:01.866Z,33.30
2019-05-02T08:00:32.183Z,33.10
2019-05-02T08:02:59.422Z,33.50
2019-05-02T08:05:27.982Z,34.50
2019-05-02T08:07:56.525Z,34.90
2019-05-02T08:10:25.165Z,34.40
2019-05-02T08:12:53.629Z,34.90
2019-05-02T08:15:24.486Z,35.60
2019-05-02T08:17:53.772Z,35.30
2019-05-02T08:20:22.607Z,36.10
2019-05-02T08:22:51.090Z,36.30
2019-05-02T08:25:19.790Z,36.70
2019-05-02T08:28:04.546Z,37.20
2019-05-02T08:30:35.387Z,38.00
2019-05-02T08:33:04.569Z,38.60
2019-05-02T08:35:33.833Z,38.40
2019-05-02T08:38:02.379Z,38.60
2019-05-02T08:40:30.965Z,38.20
2019-05-02T08:43:03.495Z,37.80
2019-05-02T08:45:33.123Z,37.80
2019-05-02T08:48:04.847Z,38.40
2019-05-02T08:50:31.879Z,37.60
2019-05-02T08:53:00.662Z,37.50
2019-05-02T08:55:30.055Z,37.90
2019-05-02T08:57:58.570Z,38.50
2019-05-02T09:00:27.133Z,38.70
2019-05-02T09:02:57.166Z,38.60
2019-05-02T09:05:26.255Z,38.30
2019-05-02T09:07:55.082Z,38.60
2019-05-02T09:10:23.650Z,39.00
2019-05-02T09:12:52.228Z,39.00
2019-05-02T09:15:22.311Z,38.90
2019-05-02T09:17:56.327Z,37.40
2019-05-02T09:20:23.655Z,37.50
2019-05-02T09:22:55.850Z,37.10
2019-05-02T09:25:22.475Z,36.20
2019-05-02T09:27:52.629Z,36.40
2019-05-02T09:30:24.501Z,36.40
2019-05-02T09:32:52.305Z,37.40
2019-05-02T09:35:22.939Z,37.10
2019-05-02T09:37:52.296Z,36.80
2019-05-02T09:40:22.172Z,36.90
2019-05-02T09:42:53.265Z,37.40
2019-05-02T09:45:23.077Z,37.40
2019-05-02T09:48:01.524Z,37.90
2019-05-02T09:50:29.521Z,36.90
2019-05-02T09:52:53.858Z,35.30
2019-05-02T09:55:22.706Z,35.30
2019-05-02T09:57:51.941Z,35.80
2019-05-02T10:00:36.248Z,37.00
2019-05-02T10:03:04.654Z,37.20
2019-05-02T10:05:33.200Z,37.00
2019-05-02T10:08:03.129Z,36.80
2019-05-02T10:10:37.180Z,36.50
2019-05-02T10:13:03.257Z,36.40
2019-05-02T10:15:32.724Z,37.00
2019-05-02T10:18:10.268Z,37.60
2019-05-02T10:20:36.132Z,37.10
2019-05-02T10:23:02.378Z,36.70
2019-05-02T10:25:38.555Z,35.80
2019-05-02T10:28:02.105Z,35.30
2019-05-02T10:30:35.589Z,34.60
2019-05-02T10:33:03.014Z,33.70
2019-05-02T10:35:45.116Z,31.30
2019-05-02T10:38:18.011Z,30.90
2019-05-02T10:40:48.069Z,30.20
2019-05-02T10:43:14.210Z,29.80
2019-05-02T10:45:47.427Z,30.20
2019-05-02T10:48:24.975Z,28.90
2019-05-02T10:50:52.316Z,28.80
2019-05-02T10:53:21.917Z,28.90
2019-05-02T10:55:52.347Z,29.00
2019-05-02T10:58:25.825Z,28.80
2019-05-02T11:00:52.333Z,28.70
2019-05-02T11:03:32.003Z,28.30
2019-05-02T11:06:07.504Z,28.50
2019-05-02T11:08:36.766Z,28.70
2019-05-02T11:11:05.953Z,28.70
2019-05-02T11:13:34.994Z,28.70
2019-05-02T11:16:17.220Z,28.40
2019-05-02T11:19:03.458Z,28.10
2019-05-02T11:21:32.278Z,28.00
2019-05-02T11:24:02.372Z,27.70
2019-05-02T11:26:32.394Z,27.40
2019-05-02T11:29:03.005Z,26.80
2019-05-02T11:31:32.441Z,26.10
2019-05-02T11:34:02.068Z,25.40
2019-05-02T11:36:32.582Z,25.30
2019-05-02T11:39:10.764Z,25.30
2019-05-02T11:41:31.771Z,25.70
2019-05-02T11:44:02.768Z,25.90
2019-05-02T11:46:32.874Z,26.00
2019-05-02T11:49:02.437Z,25.60
2019-05-02T11:51:32.696Z,25.70
2019-05-02T11:54:07.607Z,25.80
2019-05-02T11:56:32.973Z,25.90
2019-05-02T11:59:02.793Z,25.90
2019-05-02T12:01:38.923Z,25.90
2019-05-02T12:04:03.017Z,26.00
2019-05-02T12:06:33.151Z,25.80
2019-05-02T12:09:02.188Z,25.90
2019-05-02T12:11:32.346Z,25.90
2019-05-02T12:14:01.777Z,25.60
2019-05-02T12:16:32.163Z,26.00
2019-05-02T12:19:09.493Z,26.00
2019-05-02T12:21:32.475Z,25.80
2019-05-02T12:24:02.284Z,25.80
2019-05-02T12:26:32.338Z,25.90
2019-05-02T12:29:02.572Z,26.00
2019-05-02T12:31:32.580Z,25.90
2019-05-02T12:34:02.837Z,25.70
2019-05-02T12:36:33.346Z,25.80
2019-05-02T12:39:02.453Z,25.70
2019-05-02T12:41:32.885Z,25.60
2019-05-02T12:44:02.239Z,25.40
2019-05-02T12:46:31.777Z,25.20
2019-05-02T12:49:02.570Z,24.90
2019-05-02T12:51:32.023Z,25.00
2019-05-02T12:54:02.229Z,25.20
2019-05-02T12:56:32.369Z,25.10
2019-05-02T12:59:02.431Z,25.00
2019-05-02T13:01:32.943Z,24.90
2019-05-02T13:04:03.154Z,24.60
2019-05-02T13:06:32.750Z,24.40
2019-05-02T13:09:03.101Z,24.10
2019-05-02T13:11:41.300Z,24.30
2019-05-02T13:14:18.836Z,24.50
2019-05-02T13:16:38.524Z,24.20
2019-05-02T13:19:07.260Z,24.20
2019-05-02T13:21:50.407Z,24.00
2019-05-02T13:24:18.218Z,23.90
2019-05-02T13:26:51.419Z,24.00
2019-05-02T13:29:17.361Z,24.00
2019-05-02T13:31:52.250Z,23.90
2019-05-02T13:34:22.418Z,23.90
2019-05-02T13:36:52.639Z,23.70
2019-05-02T13:39:23.084Z,23.70
2019-05-02T13:41:52.171Z,23.70
2019-05-02T13:44:22.813Z,23.60
2019-05-02T13:46:53.471Z,23.50
2019-05-02T13:49:22.064Z,23.60
2019-05-02T13:51:52.143Z,23.70
2019-05-02T13:54:22.096Z,23.80
2019-05-02T13:56:52.874Z,23.90
2019-05-02T13:59:22.267Z,24.20
2019-05-02T14:01:52.289Z,24.20
2019-05-02T14:04:23.221Z,24.00
2019-05-02T14:06:52.840Z,23.90
2019-05-02T14:09:23.167Z,23.90
2019-05-02T14:12:05.341Z,23.50
2019-05-02T14:14:33.824Z,23.40
2019-05-02T14:17:03.048Z,23.10
2019-05-02T14:19:32.005Z,23.10
2019-05-02T14:22:00.960Z,23.00
2019-05-02T14:24:32.235Z,23.20
2019-05-02T14:27:02.593Z,23.30
2019-05-02T14:29:32.983Z,23.50
2019-05-02T14:32:02.741Z,23.30
2019-05-02T14:34:42.630Z,23.10
2019-05-02T14:37:11.843Z,23.00
2019-05-02T14:39:41.643Z,22.90
2019-05-02T14:42:15.287Z,22.70
2019-05-02T14:45:01.324Z,22.40
2019-05-02T14:47:18.228Z,22.30
2019-05-02T14:49:42.934Z,22.20
2019-05-02T14:52:12.609Z,22.00
2019-05-02T14:54:43.968Z,21.90
2019-05-02T14:57:17.167Z,21.80
2019-05-02T14:59:45.833Z,21.90
2019-05-02T15:02:16.191Z,21.80
2019-05-02T15:04:48.867Z,22.00
2019-05-02T15:07:17.707Z,22.00
2019-05-02T15:09:45.715Z,22.10
2019-05-02T15:12:18.729Z,21.90
2019-05-02T15:14:44.445Z,21.70
2019-05-02T15:17:12.965Z,21.50
2019-05-02T15:19:42.757Z,21.40
2019-05-02T15:22:12.467Z,21.20
2019-05-02T15:24:42.366Z,20.70
2019-05-02T15:27:16.571Z,20.00
2019-05-02T15:29:41.986Z,19.60
2019-05-02T15:32:12.753Z,19.30
2019-05-02T15:34:58.901Z,18.90
2019-05-02T15:37:28.205Z,18.70
2019-05-02T15:42:26.907Z,17.40
2019-05-02T15:44:57.026Z,16.90
2019-05-02T15:47:25.726Z,16.50
2019-05-02T15:49:54.353Z,16.20
2019-05-02T15:52:27.766Z,16.10
2019-05-02T15:54:59.571Z,15.90
2019-05-02T15:57:25.299Z,15.70
2019-05-02T15:59:54.156Z,15.60
2019-05-02T16:02:26.521Z,15.50
2019-05-02T16:04:56.901Z,15.30
2019-05-02T16:07:25.099Z,15.10
2019-05-02T16:09:59.322Z,14.90
2019-05-02T16:12:27.243Z,14.80
2019-05-02T16:14:54.306Z,14.70
2019-05-02T16:17:25.733Z,14.60
2019-05-02T16:19:58.637Z,14.50
2019-05-02T16:22:26.293Z,14.60
2019-05-02T16:24:56.620Z,14.60
2019-05-02T16:27:29.089Z,14.80
2019-05-02T16:29:58.349Z,14.70
2019-05-02T16:32:35.761Z,14.80
2019-05-02T16:35:12.360Z,14.80
2019-05-02T16:37:37.086Z,14.60
2019-05-02T16:40:08.027Z,14.60
2019-05-02T16:42:37.129Z,14.60
2019-05-02T16:45:11.801Z,14.60
2019-05-02T16:47:42.239Z,14.60
2019-05-02T16:50:12.212Z,14.40
2019-05-02T16:52:43.719Z,14.50
2019-05-02T16:55:13.686Z,14.40
2019-05-02T16:57:42.434Z,14.40
2019-05-02T17:00:14.049Z,14.30
2019-05-02T17:02:46.147Z,14.30
2019-05-02T17:05:13.144Z,14.20
2019-05-02T17:07:43.878Z,14.20
2019-05-02T17:10:19.804Z,14.30
2019-05-02T17:12:52.928Z,14.40
2019-05-02T17:15:35.144Z,14.30
2019-05-02T17:18:04.921Z,14.20
2019-05-02T17:20:32.714Z,14.10
2019-05-02T17:23:03.406Z,14.00
2019-05-02T17:25:32.216Z,14.00
2019-05-02T17:28:05.760Z,13.90
2019-05-02T17:30:38.627Z,13.80
2019-05-02T17:33:01.876Z,13.70
2019-05-02T17:35:32.442Z,13.70
2019-05-02T17:38:02.574Z,13.70
2019-05-02T17:40:54.484Z,13.70
2019-05-02T17:43:22.808Z,13.60
2019-05-02T17:45:51.328Z,13.60
2019-05-02T17:48:19.955Z,13.60
2019-05-02T17:51:06.411Z,13.50
2019-05-02T17:53:41.507Z,13.60
2019-05-02T17:56:05.324Z,13.50
2019-05-02T17:58:33.981Z,13.50
2019-05-02T18:01:04.197Z,13.40
2019-05-02T18:03:35.341Z,13.40
2019-05-02T18:06:07.472Z,13.50
2019-05-02T18:08:33.481Z,13.40
2019-05-02T18:11:02.933Z,13.40
2019-05-02T18:13:33.728Z,13.40
2019-05-02T18:16:02.804Z,13.30
2019-05-02T18:18:31.962Z,13.40
2019-05-02T18:21:02.096Z,13.20
2019-05-02T18:23:32.300Z,13.20
2019-05-02T18:26:04.518Z,13.10
2019-05-02T18:28:31.145Z,13.20
2019-05-02T18:31:02.765Z,13.10
2019-05-02T18:33:29.886Z,13.10
2019-05-02T18:35:58.387Z,13.10
2019-05-02T18:38:26.998Z,13.10
2019-05-02T18:41:00.494Z,13.10
2019-05-02T18:43:26.303Z,13.00
2019-05-02T18:45:58.174Z,12.90
2019-05-02T18:48:25.193Z,12.90
2019-05-02T18:50:53.754Z,12.90
2019-05-02T18:53:24.248Z,12.80
2019-05-02T18:55:56.757Z,12.70
2019-05-02T18:58:23.256Z,12.70
2019-05-02T19:00:52.095Z,12.80
2019-05-02T19:03:22.843Z,12.90
2019-05-02T19:05:51.541Z,12.80
2019-05-02T19:08:29.151Z,12.70
2019-05-02T19:11:04.647Z,12.70
2019-05-02T19:13:22.399Z,12.80
2019-05-02T19:15:50.990Z,12.80
2019-05-02T19:18:19.758Z,12.90
2019-05-02T19:20:57.426Z,12.90
2019-05-02T19:23:24.740Z,12.90
2019-05-02T19:25:53.315Z,12.90
2019-05-02T19:28:23.770Z,12.90
2019-05-02T19:30:52.374Z,12.90
2019-05-02T19:33:23.007Z,12.90
2019-05-02T19:35:52.556Z,12.90
2019-05-02T19:38:24.347Z,12.80
2019-05-02T19:40:52.069Z,12.80
2019-05-02T19:43:22.904Z,12.70
2019-05-02T19:45:53.887Z,12.70
2019-05-02T19:48:22.659Z,12.60
2019-05-02T19:50:51.836Z,12.60
2019-05-02T19:53:22.630Z,12.60
2019-05-02T19:55:52.033Z,12.60
2019-05-02T19:58:20.861Z,12.50
2019-05-02T20:00:49.548Z,12.60
2019-05-02T20:03:21.533Z,12.50
2019-05-02T20:05:48.710Z,12.50
2019-05-02T20:08:22.843Z,12.50
2019-05-02T20:10:49.277Z,12.50
2019-05-02T20:13:20.298Z,12.50
2019-05-02T20:15:57.188Z,12.40
2019-05-02T20:18:22.986Z,12.40
2019-05-02T20:20:53.205Z,12.30
2019-05-02T20:23:28.301Z,12.30
2019-05-02T20:25:52.303Z,12.30
2019-05-02T20:28:21.817Z,12.30
2019-05-02T20:30:52.527Z,12.20
2019-05-02T20:33:22.246Z,12.10
2019-05-02T20:35:52.685Z,12.10
2019-05-02T20:38:21.887Z,12.00
2019-05-02T20:40:52.253Z,11.90
2019-05-02T20:43:22.617Z,11.80
2019-05-02T20:45:52.722Z,11.70
2019-05-02T20:48:22.717Z,11.70
2019-05-02T20:50:51.945Z,11.80
2019-05-02T20:53:30.267Z,11.70
2019-05-02T20:55:52.392Z,11.60
2019-05-02T20:58:22.060Z,11.70
2019-05-02T21:01:05.097Z,11.60
2019-05-02T21:03:21.167Z,11.50
2019-05-02T21:05:54.101Z,11.50
2019-05-02T21:08:24.550Z,11.40
2019-05-02T21:10:55.053Z,11.50
2019-05-02T21:13:23.613Z,11.40
2019-05-02T21:15:52.455Z,11.30
2019-05-02T21:18:22.061Z,11.40
2019-05-02T21:20:52.594Z,11.50
2019-05-02T21:23:21.855Z,11.50
2019-05-02T21:25:52.329Z,11.50
2019-05-02T21:28:22.527Z,11.40
2019-05-02T21:30:52.342Z,11.40
2019-05-02T21:33:32.994Z,11.40
2019-05-02T21:36:01.874Z,11.40
2019-05-02T21:38:31.954Z,11.30
2019-05-02T21:41:00.589Z,11.40
2019-05-02T21:43:29.077Z,11.50
2019-05-02T21:45:57.639Z,11.30
2019-05-02T21:48:27.537Z,11.40
2019-05-02T21:51:06.564Z,11.60
2019-05-02T21:53:54.946Z,11.50
2019-05-02T21:56:26.417Z,11.30
2019-05-02T21:59:13.309Z,11.20
2019-05-02T22:01:48.470Z,11.30
2019-05-02T22:04:17.174Z,11.30
2019-05-02T22:06:45.794Z,11.30
2019-05-02T22:09:14.602Z,11.30
2019-05-02T22:11:43.325Z,11.40
2019-05-02T22:14:13.436Z,11.40
2019-05-02T22:16:42.239Z,11.30
2019-05-02T22:19:11.098Z,11.30
2019-05-02T22:21:39.718Z,11.30
2019-05-02T22:24:11.635Z,11.30
2019-05-02T22:26:38.725Z,11.20
2019-05-02T22:29:07.293Z,11.20
2019-05-02T22:31:35.834Z,11.20
2019-05-02T22:34:04.541Z,11.10
2019-05-02T22:36:33.026Z,11.00
2019-05-02T22:39:18.342Z,11.00
2019-05-02T22:41:46.813Z,11.00
2019-05-02T22:44:15.314Z,11.00
2019-05-02T22:46:44.465Z,11.00
2019-05-02T22:49:15.237Z,11.00
2019-05-02T22:51:44.252Z,11.10
2019-05-02T22:54:26.328Z,10.90
2019-05-02T22:56:43.359Z,10.90
2019-05-02T22:59:12.098Z,10.90
2019-05-02T23:01:42.241Z,10.90
2019-05-02T23:04:12.745Z,10.80
2019-05-02T23:06:43.856Z,10.80
2019-05-02T23:09:12.630Z,10.90
2019-05-02T23:11:42.604Z,10.90
2019-05-02T23:14:11.398Z,10.90
2019-05-02T23:16:42.334Z,10.80
2019-05-02T23:19:12.039Z,10.80
2019-05-02T23:21:42.154Z,10.90
2019-05-02T23:24:14.557Z,10.80
2019-05-02T23:26:47.130Z,10.90
2019-05-02T23:29:17.473Z,10.80
2019-05-02T23:31:46.032Z,10.80
2019-05-02T23:34:14.704Z,10.70
2019-05-02T23:36:43.249Z,10.80
2019-05-02T23:39:12.507Z,10.90
2019-05-02T23:41:42.098Z,10.80
2019-05-02T23:44:12.324Z,10.80
2019-05-02T23:46:42.373Z,10.80
2019-05-02T23:49:12.810Z,10.80
2019-05-02T23:51:42.692Z,10.80
2019-05-02T23:54:12.886Z,10.50
2019-05-02T23:56:42.953Z,10.60
2019-05-02T23:59:11.944Z,10.70
